createdAt,value
2022-10-28T00:02:22.841Z,5.47
2022-10-28T00:04:49.407Z,5.30
2022-10-28T00:07:15.948Z,5.10
2022-10-28T00:09:42.655Z,4.43
2022-10-28T00:12:09.196Z,4.87
2022-10-28T00:14:35.904Z,4.63
2022-10-28T00:17:02.434Z,4.90
2022-10-28T00:19:29.659Z,5.60
2022-10-28T00:21:56.243Z,4.70
2022-10-28T00:24:22.798Z,5.17
2022-10-28T00:26:49.326Z,4.97
2022-10-28T00:29:18.553Z,4.50
2022-10-28T00:31:47.008Z,4.80
2022-10-28T00:34:16.015Z,4.70
2022-10-28T00:36:44.549Z,4.90
2022-10-28T00:39:22.368Z,5.13
2022-10-28T00:41:55.067Z,5.13
2022-10-28T00:44:43.409Z,4.97
2022-10-28T00:47:31.775Z,4.93
2022-10-28T00:50:27.390Z,5.17
2022-10-28T00:52:58.167Z,5.23
2022-10-28T00:55:25.695Z,5.20
2022-10-28T00:57:56.513Z,5.47
2022-10-28T01:00:24.878Z,4.60
2022-10-28T01:02:51.820Z,5.27
2022-10-28T01:05:25.454Z,5.07
2022-10-28T01:07:55.875Z,4.47
2022-10-28T01:10:28.280Z,5.60
2022-10-28T01:13:26.619Z,5.50
2022-10-28T01:16:07.039Z,4.97
2022-10-28T01:18:53.890Z,5.30
2022-10-28T01:22:02.528Z,5.40
2022-10-28T01:24:56.932Z,4.80
2022-10-28T01:28:00.991Z,5.57
2022-10-28T01:30:33.215Z,5.00
2022-10-28T01:33:29.798Z,5.57
2022-10-28T01:36:48.093Z,5.03
2022-10-28T01:39:32.627Z,5.33
2022-10-28T01:42:12.868Z,5.17
2022-10-28T01:45:10.065Z,5.63
2022-10-28T01:47:49.439Z,5.27
2022-10-28T01:50:24.206Z,5.20
2022-10-28T01:52:55.212Z,4.90
2022-10-28T01:55:30.094Z,5.23
2022-10-28T01:57:59.357Z,4.90
2022-10-28T02:00:26.423Z,4.47
2022-10-28T02:02:55.262Z,5.03
2022-10-28T02:05:40.646Z,5.57
2022-10-28T02:08:22.638Z,5.30
2022-10-28T02:11:00.492Z,5.60
2022-10-28T02:13:35.982Z,5.20
2022-10-28T02:16:49.794Z,5.67
2022-10-28T02:19:43.967Z,4.83
2022-10-28T02:23:01.352Z,5.13
2022-10-28T02:25:41.513Z,5.43
2022-10-28T02:31:03.659Z,5.50
2022-10-28T02:33:35.243Z,6.07
2022-10-28T02:36:12.741Z,5.63
2022-10-28T02:38:45.350Z,5.63
2022-10-28T02:41:21.569Z,5.27
2022-10-28T02:43:51.795Z,4.57
2022-10-28T02:46:19.766Z,5.43
2022-10-28T02:48:54.284Z,5.67
2022-10-28T02:51:24.868Z,5.07
2022-10-28T02:54:14.351Z,4.73
2022-10-28T02:56:49.793Z,5.60
2022-10-28T02:59:16.332Z,5.10
2022-10-28T03:01:43.134Z,5.13
2022-10-28T03:04:09.778Z,5.60
2022-10-28T03:06:36.371Z,5.10
2022-10-28T03:09:03.050Z,5.30
2022-10-28T03:11:29.635Z,5.68
2022-10-28T03:13:56.216Z,5.80
2022-10-28T03:16:22.852Z,5.67
2022-10-28T03:18:49.478Z,4.80
2022-10-28T03:21:16.078Z,5.37
2022-10-28T03:23:42.613Z,5.47
2022-10-28T03:26:09.209Z,5.00
2022-10-28T03:28:35.884Z,5.37
2022-10-28T03:31:02.484Z,5.50
2022-10-28T03:33:29.031Z,5.10
2022-10-28T03:35:55.770Z,5.40
2022-10-28T03:38:22.310Z,5.13
2022-10-28T03:40:49.551Z,4.93
2022-10-28T03:43:17.052Z,4.83
2022-10-28T03:45:44.278Z,4.97
2022-10-28T03:48:10.872Z,5.90
2022-10-28T03:50:37.481Z,5.30
2022-10-28T03:53:04.020Z,5.60
2022-10-28T03:55:30.604Z,5.63
2022-10-28T03:58:00.584Z,4.83
2022-10-28T04:00:27.467Z,5.07
2022-10-28T04:02:54.380Z,6.10
2022-10-28T04:05:21.758Z,5.70
2022-10-28T04:07:48.427Z,5.83
2022-10-28T04:10:15.138Z,5.80
2022-10-28T04:12:41.703Z,5.70
2022-10-28T04:15:08.556Z,6.37
2022-10-28T04:17:35.410Z,5.60
2022-10-28T04:20:02.003Z,5.57
2022-10-28T04:22:28.535Z,5.37
2022-10-28T04:24:55.296Z,5.53
2022-10-28T04:27:22.015Z,6.68
2022-10-28T04:29:48.574Z,5.50
2022-10-28T04:32:15.109Z,5.63
2022-10-28T04:34:41.640Z,5.30
2022-10-28T04:37:08.174Z,4.67
2022-10-28T04:39:34.702Z,5.80
2022-10-28T04:42:01.236Z,5.50
2022-10-28T04:44:27.764Z,5.03
2022-10-28T04:46:56.520Z,5.90
2022-10-28T04:49:23.039Z,5.80
2022-10-28T04:51:49.718Z,6.00
2022-10-28T04:54:16.255Z,5.97
2022-10-28T04:56:42.854Z,6.43
2022-10-28T04:59:09.411Z,6.13
2022-10-28T05:01:36.504Z,6.20
2022-10-28T05:04:03.519Z,6.07
2022-10-28T05:06:30.058Z,6.13
2022-10-28T05:08:56.584Z,5.77
2022-10-28T05:11:23.223Z,6.43
2022-10-28T05:13:49.839Z,6.10
2022-10-28T05:16:16.376Z,6.23
2022-10-28T05:21:14.460Z,5.90
2022-10-28T05:23:41.149Z,6.90
2022-10-28T05:26:07.755Z,6.30
2022-10-28T05:28:34.321Z,5.57
2022-10-28T05:31:01.012Z,5.67
2022-10-28T05:33:27.534Z,5.83
2022-10-28T05:35:54.096Z,5.73
2022-10-28T05:38:20.703Z,5.90
2022-10-28T05:40:47.246Z,5.70
2022-10-28T05:43:13.787Z,5.23
2022-10-28T05:45:40.382Z,5.30
2022-10-28T05:48:07.421Z,4.07
2022-10-28T05:50:34.140Z,5.20
2022-10-28T05:53:00.930Z,5.17
2022-10-28T05:55:29.419Z,5.27
2022-10-28T05:57:56.994Z,5.53
2022-10-28T06:00:25.799Z,5.27
2022-10-28T06:02:52.654Z,6.03
2022-10-28T06:05:19.902Z,6.07
2022-10-28T06:07:46.425Z,5.40
2022-10-28T06:10:13.003Z,6.47
2022-10-28T06:12:38.115Z,5.63
2022-10-28T06:15:05.118Z,5.73
2022-10-28T06:17:31.669Z,4.90
2022-10-28T06:19:58.214Z,4.70
2022-10-28T06:22:24.796Z,5.17
2022-10-28T06:24:51.330Z,5.50
2022-10-28T06:27:17.872Z,5.33
2022-10-28T06:29:44.407Z,5.97
2022-10-28T06:32:10.952Z,5.50
2022-10-28T06:34:37.757Z,7.03
2022-10-28T06:37:09.088Z,7.07
2022-10-28T06:39:36.901Z,6.40
2022-10-28T06:42:03.594Z,5.20
2022-10-28T06:44:30.125Z,6.53
2022-10-28T06:46:58.170Z,5.30
2022-10-28T06:49:24.695Z,5.13
2022-10-28T06:51:51.313Z,5.53
2022-10-28T06:54:17.870Z,5.77
2022-10-28T06:56:46.626Z,5.82
2022-10-28T06:59:13.185Z,4.70
2022-10-28T07:01:39.785Z,4.60
2022-10-28T07:04:11.209Z,4.30
2022-10-28T07:06:37.744Z,5.30
2022-10-28T07:09:04.434Z,5.00
2022-10-28T07:11:31.108Z,4.30
2022-10-28T07:13:57.640Z,5.10
2022-10-28T07:16:24.490Z,4.53
2022-10-28T07:18:51.043Z,4.70
2022-10-28T07:21:18.272Z,4.83
2022-10-28T07:23:46.900Z,4.23
2022-10-28T07:26:13.447Z,4.10
2022-10-28T07:28:40.126Z,4.07
2022-10-28T07:31:06.747Z,4.93
2022-10-28T07:33:33.352Z,4.93
2022-10-28T07:36:03.665Z,3.80
2022-10-28T07:38:30.619Z,4.43
2022-10-28T07:40:57.233Z,4.53
2022-10-28T07:43:23.868Z,4.40
2022-10-28T07:45:59.011Z,4.23
2022-10-28T07:48:25.676Z,4.60
2022-10-28T07:50:52.230Z,4.50
2022-10-28T07:53:18.806Z,5.10
2022-10-28T07:55:45.385Z,4.07
2022-10-28T07:58:11.992Z,5.00
2022-10-28T08:00:38.705Z,4.17
2022-10-28T08:03:05.413Z,4.93
2022-10-28T08:05:31.958Z,4.20
2022-10-28T08:07:58.499Z,3.50
2022-10-28T08:10:26.339Z,4.55
2022-10-28T08:12:55.454Z,4.50
2022-10-28T08:15:23.871Z,4.40
2022-10-28T08:17:54.156Z,5.17
2022-10-28T08:20:21.013Z,4.80
2022-10-28T08:22:47.891Z,4.47
2022-10-28T08:25:14.776Z,4.43
2022-10-28T08:27:42.162Z,4.30
2022-10-28T08:30:09.806Z,4.20
2022-10-28T08:32:36.353Z,5.10
2022-10-28T08:35:03.038Z,5.17
2022-10-28T08:37:29.783Z,4.63
2022-10-28T08:39:56.380Z,5.20
2022-10-28T08:42:44.931Z,4.63
2022-10-28T08:45:23.336Z,5.23
2022-10-28T08:47:55.604Z,5.70
2022-10-28T08:50:24.831Z,5.30
2022-10-28T08:52:56.670Z,5.23
2022-10-28T08:55:38.827Z,5.13
2022-10-28T08:58:12.210Z,4.90
2022-10-28T09:00:39.806Z,5.00
2022-10-28T09:03:16.715Z,4.80
2022-10-28T09:05:47.852Z,4.37
2022-10-28T09:08:22.587Z,4.83
2022-10-28T09:11:10.468Z,4.53
2022-10-28T09:14:18.724Z,4.40
2022-10-28T09:16:50.788Z,3.80
2022-10-28T09:19:38.509Z,4.17
2022-10-28T09:22:21.084Z,4.07
2022-10-28T09:24:53.767Z,4.77
2022-10-28T09:27:24.960Z,4.60
2022-10-28T09:30:17.103Z,5.43
2022-10-28T09:32:56.027Z,5.23
2022-10-28T09:35:26.841Z,5.53
2022-10-28T09:38:09.582Z,4.73
2022-10-28T09:40:39.200Z,5.57
2022-10-28T09:43:25.870Z,5.00
2022-10-28T09:45:55.457Z,4.60
2022-10-28T09:48:33.071Z,4.93
2022-10-28T09:51:00.562Z,5.00
2022-10-28T09:53:40.990Z,4.30
2022-10-28T09:58:36.528Z,5.40
2022-10-28T10:01:04.819Z,5.10
2022-10-28T10:03:32.701Z,4.83
2022-10-28T10:06:09.060Z,4.20
2022-10-28T10:08:37.397Z,4.87
2022-10-28T10:11:07.421Z,4.40
2022-10-28T10:13:48.880Z,4.87
2022-10-28T10:16:21.157Z,4.50
2022-10-28T10:18:51.713Z,4.47
2022-10-28T10:21:21.091Z,4.40
2022-10-28T10:23:48.055Z,4.97
2022-10-28T10:26:16.285Z,4.93
2022-10-28T10:28:48.364Z,4.10
2022-10-28T10:31:20.442Z,4.80
2022-10-28T10:33:49.838Z,5.53
2022-10-28T10:36:18.376Z,4.77
2022-10-28T10:38:49.631Z,6.63
2022-10-28T10:41:35.378Z,6.47
2022-10-28T10:44:02.376Z,5.93
2022-10-28T10:46:29.373Z,5.57
2022-10-28T10:49:14.237Z,7.03
2022-10-28T10:51:51.110Z,6.20
2022-10-28T10:54:18.991Z,5.50
2022-10-28T10:56:46.163Z,6.23
2022-10-28T10:59:21.180Z,5.80
2022-10-28T11:01:48.369Z,5.20
2022-10-28T11:04:20.294Z,5.10
2022-10-28T11:06:50.491Z,5.00
2022-10-28T11:09:17.421Z,5.90
2022-10-28T11:11:44.544Z,5.53
2022-10-28T11:14:13.254Z,5.80
2022-10-28T11:16:49.612Z,5.40
2022-10-28T11:19:21.797Z,4.90
2022-10-28T11:22:07.651Z,5.07
2022-10-28T11:24:44.909Z,5.53
2022-10-28T11:27:30.621Z,5.30
2022-10-28T11:29:59.069Z,5.07
2022-10-28T11:32:29.012Z,5.17
2022-10-28T11:35:04.380Z,6.30
2022-10-28T11:37:34.412Z,6.40
2022-10-28T11:40:20.191Z,6.27
2022-10-28T11:43:13.574Z,6.37
2022-10-28T11:45:48.617Z,6.53
2022-10-28T11:48:21.058Z,6.60
2022-10-28T11:50:48.034Z,6.07
2022-10-28T11:53:25.473Z,6.10
2022-10-28T11:56:09.246Z,6.72
2022-10-28T11:59:01.705Z,4.90
2022-10-28T12:01:47.676Z,4.83
2022-10-28T12:04:21.129Z,4.83
2022-10-28T12:06:48.071Z,4.90
2022-10-28T12:09:28.012Z,4.30
2022-10-28T12:12:04.353Z,4.60
2022-10-28T12:14:43.252Z,4.63
2022-10-28T12:17:20.128Z,5.73
2022-10-28T12:19:52.923Z,5.70
2022-10-28T12:22:27.505Z,5.43
2022-10-28T12:24:55.875Z,5.40
2022-10-28T12:27:28.324Z,5.33
2022-10-28T12:29:59.392Z,5.63
2022-10-28T12:32:32.347Z,6.07
2022-10-28T12:35:14.970Z,5.13
2022-10-28T12:37:52.153Z,5.10
2022-10-28T12:40:20.615Z,5.90
2022-10-28T12:42:51.020Z,4.73
2022-10-28T12:45:19.186Z,5.53
2022-10-28T12:48:00.826Z,5.23
2022-10-28T12:50:46.365Z,5.00
2022-10-28T12:53:16.414Z,4.80
2022-10-28T12:55:46.864Z,4.23
2022-10-28T12:58:24.266Z,5.03
2022-10-28T13:00:56.167Z,4.60
2022-10-28T13:03:23.399Z,4.93
2022-10-28T13:06:02.913Z,4.57
2022-10-28T13:08:48.440Z,4.70
2022-10-28T13:11:21.602Z,4.53
2022-10-28T13:13:53.948Z,4.20
2022-10-28T13:16:39.472Z,4.43
2022-10-28T13:19:25.312Z,4.70
2022-10-28T13:21:55.343Z,4.70
2022-10-28T13:24:28.056Z,4.70
2022-10-28T13:26:55.238Z,4.07
2022-10-28T13:29:24.569Z,4.10
2022-10-28T13:31:52.005Z,4.43
2022-10-28T13:34:20.820Z,4.07
2022-10-28T13:36:57.532Z,4.17
2022-10-28T13:39:26.854Z,4.57
2022-10-28T13:42:19.383Z,4.47
2022-10-28T13:44:50.463Z,4.35
2022-10-28T13:47:17.448Z,4.57
2022-10-28T13:50:03.144Z,4.10
2022-10-28T13:52:30.100Z,4.43
2022-10-28T13:55:01.053Z,4.07
2022-10-28T13:57:31.245Z,4.57
2022-10-28T14:00:01.956Z,5.30
2022-10-28T14:02:36.250Z,5.03
2022-10-28T14:05:06.273Z,4.87
2022-10-28T14:07:34.454Z,4.77
2022-10-28T14:10:20.280Z,5.07
2022-10-28T14:12:50.627Z,4.53
2022-10-28T14:15:19.848Z,4.50
2022-10-28T14:17:52.909Z,4.47
2022-10-28T14:20:23.261Z,5.22
2022-10-28T14:22:51.127Z,5.73
2022-10-28T14:25:36.731Z,5.37
2022-10-28T14:28:03.729Z,5.07
2022-10-28T14:30:30.721Z,4.87
2022-10-28T14:33:00.545Z,5.03
2022-10-28T14:35:29.995Z,4.97
2022-10-28T14:38:00.071Z,5.00
2022-10-28T14:40:35.954Z,4.67
2022-10-28T14:43:22.894Z,5.43
2022-10-28T14:46:10.606Z,5.07
2022-10-28T14:48:42.653Z,5.30
2022-10-28T14:51:13.466Z,5.70
2022-10-28T14:53:41.328Z,5.50
2022-10-28T14:56:10.325Z,5.70
2022-10-28T14:58:38.129Z,5.67
2022-10-28T15:01:08.323Z,5.63
2022-10-28T15:03:35.550Z,5.87
2022-10-28T15:06:03.294Z,5.87
2022-10-28T15:08:30.336Z,5.83
2022-10-28T15:10:57.358Z,5.27
2022-10-28T15:13:26.624Z,5.33
2022-10-28T15:15:54.459Z,5.40
2022-10-28T15:18:22.892Z,5.93
2022-10-28T15:20:50.196Z,5.13
2022-10-28T15:23:19.195Z,5.60
2022-10-28T15:25:46.702Z,5.53
2022-10-28T15:28:14.008Z,6.03
2022-10-28T15:30:46.129Z,6.37
2022-10-28T15:33:21.400Z,6.00
2022-10-28T15:35:48.844Z,5.13
2022-10-28T15:38:21.817Z,6.10
2022-10-28T15:40:49.129Z,6.03
2022-10-28T15:43:19.908Z,5.90
2022-10-28T15:45:47.180Z,5.40
2022-10-28T15:48:15.213Z,6.17
2022-10-28T15:50:42.198Z,6.17
2022-10-28T15:53:12.680Z,6.63
2022-10-28T15:58:30.345Z,6.30
2022-10-28T16:00:58.445Z,5.03
2022-10-28T16:03:32.288Z,6.10
2022-10-28T16:06:00.602Z,5.07
2022-10-28T16:08:30.356Z,4.83
2022-10-28T16:11:00.260Z,5.87
2022-10-28T16:13:36.593Z,4.90
2022-10-28T16:16:15.056Z,4.87
2022-10-28T16:19:10.406Z,5.07
2022-10-28T16:21:38.502Z,4.17
2022-10-28T16:24:05.256Z,4.37
2022-10-28T16:26:33.256Z,4.20
2022-10-28T16:29:00.002Z,4.30
2022-10-28T16:31:29.262Z,4.47
2022-10-28T16:33:57.740Z,4.37
2022-10-28T16:36:24.629Z,4.17
2022-10-28T16:38:51.141Z,4.30
2022-10-28T16:41:19.346Z,4.13
2022-10-28T16:43:46.452Z,4.40
2022-10-28T16:46:14.222Z,4.43
2022-10-28T16:48:41.172Z,4.80
2022-10-28T16:51:14.801Z,4.53
2022-10-28T16:53:46.740Z,4.82
2022-10-28T16:56:16.915Z,3.97
2022-10-28T16:58:44.087Z,3.87
2022-10-28T17:01:11.499Z,4.90
2022-10-28T17:03:38.120Z,4.03
2022-10-28T17:06:04.776Z,4.53
2022-10-28T17:09:00.558Z,4.30
2022-10-28T17:11:18.878Z,4.07
2022-10-28T17:13:46.198Z,4.33
2022-10-28T17:16:14.067Z,4.93
2022-10-28T17:18:42.272Z,4.50
2022-10-28T17:21:09.145Z,5.33
2022-10-28T17:23:35.663Z,4.60
2022-10-28T17:26:02.935Z,4.97
2022-10-28T17:28:29.880Z,6.18
2022-10-28T17:31:04.825Z,6.13
2022-10-28T17:33:31.830Z,7.00
2022-10-28T17:36:02.656Z,7.77
2022-10-28T17:38:29.762Z,6.20
2022-10-28T17:40:56.741Z,6.37
2022-10-28T17:43:24.732Z,5.63
2022-10-28T17:45:51.329Z,5.67
2022-10-28T17:48:17.949Z,5.47
2022-10-28T17:50:45.105Z,6.00
2022-10-28T17:53:11.796Z,5.60
2022-10-28T17:55:38.509Z,4.60
2022-10-28T17:58:05.112Z,4.67
2022-10-28T18:00:31.654Z,4.93
2022-10-28T18:02:58.313Z,5.17
2022-10-28T18:05:24.909Z,4.57
2022-10-28T18:07:55.250Z,4.70
2022-10-28T18:10:22.023Z,5.10
2022-10-28T18:12:51.210Z,4.70
2022-10-28T18:15:17.892Z,5.13
2022-10-28T18:17:50.034Z,5.27
2022-10-28T18:20:16.687Z,5.33
2022-10-28T18:22:43.210Z,4.60
2022-10-28T18:25:09.819Z,4.50
2022-10-28T18:27:36.922Z,4.33
2022-10-28T18:30:03.919Z,4.80
2022-10-28T18:32:30.467Z,4.60
2022-10-28T18:34:57.064Z,4.23
2022-10-28T18:37:23.693Z,5.30
2022-10-28T18:39:50.227Z,4.40
2022-10-28T18:42:20.962Z,4.83
2022-10-28T18:44:48.662Z,5.37
2022-10-28T18:47:15.195Z,4.30
2022-10-28T18:49:41.815Z,4.93
2022-10-28T18:52:08.340Z,5.30
2022-10-28T18:54:34.968Z,5.50
2022-10-28T18:57:01.497Z,5.10
2022-10-28T18:59:28.021Z,5.37
2022-10-28T19:01:54.639Z,5.00
2022-10-28T19:04:21.413Z,5.13
2022-10-28T19:06:47.956Z,5.20
2022-10-28T19:09:14.511Z,4.77
2022-10-28T19:11:41.040Z,4.80
2022-10-28T19:14:08.342Z,4.90
2022-10-28T19:16:35.378Z,4.23
2022-10-28T19:19:04.224Z,4.93
2022-10-28T19:21:30.941Z,4.60
2022-10-28T19:23:57.613Z,6.20
2022-10-28T19:26:24.792Z,6.00
2022-10-28T19:28:52.013Z,5.47
2022-10-28T19:31:20.925Z,6.03
2022-10-28T19:33:47.588Z,7.83
2022-10-28T19:36:26.143Z,11.80
2022-10-28T19:38:54.302Z,10.77
2022-10-28T19:41:26.052Z,11.60
2022-10-28T19:43:58.808Z,9.33
2022-10-28T19:46:27.320Z,8.60
2022-10-28T19:48:55.979Z,6.20
2022-10-28T19:51:27.999Z,6.53
2022-10-28T19:53:56.659Z,6.67
2022-10-28T19:56:23.284Z,5.70
2022-10-28T19:58:55.379Z,6.43
2022-10-28T20:01:23.539Z,5.77
2022-10-28T20:03:51.515Z,5.20
2022-10-28T20:06:19.850Z,5.73
2022-10-28T20:08:47.939Z,5.87
2022-10-28T20:11:20.080Z,5.87
2022-10-28T20:13:57.669Z,5.27
2022-10-28T20:16:24.985Z,5.20
2022-10-28T20:18:51.576Z,5.17
2022-10-28T20:21:20.268Z,5.70
2022-10-28T20:23:55.067Z,5.73
2022-10-28T20:26:24.213Z,5.40
2022-10-28T20:28:51.434Z,5.23
2022-10-28T20:31:20.844Z,5.13
2022-10-28T20:33:55.782Z,4.93
2022-10-28T20:36:31.154Z,5.73
2022-10-28T20:39:04.039Z,5.07
2022-10-28T20:41:32.795Z,7.70
2022-10-28T20:44:00.098Z,7.03
2022-10-28T20:46:26.957Z,7.60
2022-10-28T20:48:56.710Z,7.40
2022-10-28T20:51:25.300Z,6.53
2022-10-28T20:53:52.097Z,6.80
2022-10-28T20:56:26.546Z,6.63
2022-10-28T20:58:54.616Z,7.43
2022-10-28T21:01:23.955Z,5.40
2022-10-28T21:03:54.509Z,6.37
2022-10-28T21:06:23.034Z,5.73
2022-10-28T21:08:49.716Z,7.00
2022-10-28T21:11:17.586Z,5.63
2022-10-28T21:13:48.730Z,6.00
2022-10-28T21:16:15.267Z,6.17
2022-10-28T21:18:41.868Z,6.30
2022-10-28T21:21:08.625Z,6.03
2022-10-28T21:23:35.157Z,6.00
2022-10-28T21:26:04.503Z,5.20
2022-10-28T21:28:32.329Z,5.73
2022-10-28T21:31:10.008Z,5.43
2022-10-28T21:33:38.372Z,5.07
2022-10-28T21:36:11.426Z,5.77
2022-10-28T21:38:37.956Z,5.07
2022-10-28T21:41:04.647Z,5.10
2022-10-28T21:43:33.009Z,5.77
2022-10-28T21:45:59.787Z,5.53
2022-10-28T21:48:28.208Z,5.27
2022-10-28T21:50:56.862Z,4.73
2022-10-28T21:53:24.011Z,6.40
2022-10-28T21:55:51.297Z,5.37
2022-10-28T21:58:19.039Z,4.97
2022-10-28T22:00:46.109Z,4.90
2022-10-28T22:03:13.383Z,6.83
2022-10-28T22:05:40.143Z,5.83
2022-10-28T22:08:09.832Z,5.47
2022-10-28T22:10:38.018Z,7.23
2022-10-28T22:13:06.172Z,6.37
2022-10-28T22:15:35.844Z,6.00
2022-10-28T22:18:05.621Z,6.30
2022-10-28T22:20:32.599Z,6.87
2022-10-28T22:22:59.595Z,6.10
2022-10-28T22:25:26.610Z,6.57
2022-10-28T22:27:53.561Z,6.47
2022-10-28T22:30:20.545Z,6.13
2022-10-28T22:32:47.500Z,6.60
2022-10-28T22:35:14.544Z,6.80
2022-10-28T22:37:41.509Z,6.80
2022-10-28T22:40:08.897Z,6.13
2022-10-28T22:42:37.048Z,6.40
2022-10-28T22:45:04.120Z,6.67
2022-10-28T22:47:31.098Z,6.17
2022-10-28T22:49:58.075Z,6.30
2022-10-28T22:52:25.042Z,6.47
2022-10-28T22:54:52.015Z,5.97
2022-10-28T22:57:18.988Z,6.13
2022-10-28T22:59:46.046Z,6.03
2022-10-28T23:02:13.080Z,6.00
2022-10-28T23:04:40.184Z,6.10
2022-10-28T23:07:07.147Z,6.95
2022-10-28T23:09:34.146Z,5.93
2022-10-28T23:12:01.176Z,6.03
2022-10-28T23:14:28.180Z,6.13
2022-10-28T23:16:55.158Z,6.40
2022-10-28T23:19:22.177Z,6.10
2022-10-28T23:21:49.141Z,5.80
2022-10-28T23:24:16.138Z,6.27
2022-10-28T23:26:43.465Z,6.00
2022-10-28T23:29:10.525Z,5.77
2022-10-28T23:31:37.501Z,6.13
2022-10-28T23:34:04.501Z,6.03
2022-10-28T23:36:31.505Z,5.73
2022-10-28T23:38:58.521Z,6.10
2022-10-28T23:41:25.524Z,5.90
2022-10-28T23:43:52.523Z,6.40
2022-10-28T23:46:20.370Z,6.53
2022-10-28T23:48:47.324Z,6.63
2022-10-28T23:51:14.429Z,5.17
2022-10-28T23:53:41.416Z,6.03
2022-10-28T23:56:08.833Z,5.63
2022-10-28T23:58:35.981Z,6.17
